Time;durP1;ratioP1;P1;durP2;ratioP2;P2;SDS_P1;SDS_P2;PMS_P1;PMS_P2;Temp;Humidity;BMP_temperature;BMP_pressure;BME280_temperature;BME280_humidity;BME280_pressure;Samples;Min_cycle;Max_cycle;Signal;HPM_P1;HPM_P2
2023/02/25 00:01:20;;;;;;;6.88;2.25;;;;;;;3.27;100.00;100820.25;5090040;28;20135;-35
2023/02/25 00:03:46;;;;;;;7.93;2.58;;;;;;;3.24;100.00;100826.81;5089165;28;20023;-36
2023/02/25 00:06:13;;;;;;;11.90;2.45;;;;;;;3.22;100.00;100823.50;5090663;27;20357;-36
2023/02/25 00:08:42;;;;;;;10.93;2.92;;;;;;;3.18;100.00;100827.53;5089921;28;20103;-36
2023/02/25 00:11:07;;;;;;;8.88;2.35;;;;;;;3.17;100.00;100819.69;5089956;28;20029;-36
2023/02/25 00:13:34;;;;;;;7.03;2.07;;;;;;;3.17;100.00;100817.84;5080307;28;20103;-36
2023/02/25 00:16:02;;;;;;;10.95;2.60;;;;;;;3.14;100.00;100820.06;5076091;28;20021;-36
2023/02/25 00:18:29;;;;;;;7.97;2.10;;;;;;;3.13;100.00;100818.41;5076574;28;20024;-36
2023/02/25 00:20:56;;;;;;;7.30;2.47;;;;;;;3.11;100.00;100818.59;5076203;28;20112;-36
2023/02/25 00:23:21;;;;;;;;;;;;;;;3.15;100.00;100817.22;5076918;28;20445;-35
2023/02/25 00:25:46;;;;;;;5.70;1.83;;;;;;;3.08;100.00;100817.13;5076498;28;19957;-35
2023/02/25 00:28:11;;;;;;;11.83;2.40;;;;;;;3.06;100.00;100813.78;5076437;28;20269;-36
2023/02/25 00:30:38;;;;;;;6.87;1.87;;;;;;;2.99;100.00;100812.03;5076759;28;20096;-35
2023/02/25 00:33:07;;;;;;;10.25;2.50;;;;;;;3.04;100.00;100823.00;5076819;28;20024;-36
2023/02/25 00:35:33;;;;;;;11.63;2.28;;;;;;;3.04;100.00;100809.66;5076036;28;20062;-36
2023/02/25 00:37:59;;;;;;;9.38;2.15;;;;;;;2.87;100.00;100787.59;5076567;28;20052;-36
2023/02/25 00:40:24;;;;;;;7.88;2.00;;;;;;;3.07;100.00;100814.63;5076249;28;20350;-36
2023/02/25 00:42:50;;;;;;;9.27;2.27;;;;;;;3.08;100.00;100817.13;5075916;28;20047;-36
2023/02/25 00:45:16;;;;;;;8.95;2.67;;;;;;;3.09;100.00;100807.25;5075587;28;20031;-36
2023/02/25 00:47:41;;;;;;;;;;;;;;;3.14;100.00;100812.88;5076231;28;20090;-36
2023/02/25 00:50:08;;;;;;;10.63;2.50;;;;;;;3.11;100.00;100826.59;5075470;28;20429;-35
2023/02/25 00:52:36;;;;;;;10.73;2.40;;;;;;;3.14;100.00;100826.25;5075678;28;20103;-36
2023/02/25 00:55:02;;;;;;;9.57;2.30;;;;;;;3.18;100.00;100824.88;5075659;28;20562;-36
2023/02/25 00:57:27;;;;;;;11.40;2.55;;;;;;;3.19;100.00;100823.84;5075917;28;20025;-36
2023/02/25 00:59:53;;;;;;;7.30;1.97;;;;;;;3.18;100.00;100822.19;5075692;28;20025;-35
2023/02/25 01:02:18;;;;;;;7.57;2.00;;;;;;;3.16;100.00;100807.34;5075769;28;20461;-36
2023/02/25 01:04:43;;;;;;;10.97;2.00;;;;;;;3.24;100.00;100824.13;5075535;28;20465;-36
2023/02/25 01:07:10;;;;;;;13.03;2.33;;;;;;;3.18;100.00;100816.84;5075418;28;20029;-36
2023/02/25 01:09:35;;;;;;;9.50;2.40;;;;;;;3.24;100.00;100826.81;5075454;28;20024;-36
2023/02/25 01:12:01;;;;;;;7.43;2.08;;;;;;;3.24;100.00;100829.47;5075423;28;20025;-36
2023/02/25 01:14:26;;;;;;;8.13;2.40;;;;;;;3.17;100.00;100812.50;5075664;28;20032;-36
2023/02/25 01:16:52;;;;;;;9.07;2.77;;;;;;;3.27;100.00;100822.91;5075317;28;20028;-36
2023/02/25 01:19:20;;;;;;;11.80;2.40;;;;;;;3.21;100.00;100813.78;5075224;28;20108;-36
2023/02/25 01:21:48;;;;;;;5.72;1.80;;;;;;;3.28;100.00;100829.94;5075132;28;20027;-36
2023/02/25 01:24:16;;;;;;;7.60;2.38;;;;;;;3.23;100.00;100824.31;5075223;28;20020;-36
2023/02/25 01:26:44;;;;;;;8.43;2.10;;;;;;;3.32;100.00;100834.75;5074574;28;20032;-36
2023/02/25 01:29:12;;;;;;;8.38;2.10;;;;;;;3.31;100.00;100833.06;5074887;28;20047;-36
2023/02/25 01:31:38;;;;;;;8.63;2.05;;;;;;;3.32;100.00;100832.06;5074676;28;20028;-36
2023/02/25 01:34:06;;;;;;;12.25;2.55;;;;;;;3.34;100.00;100840.72;5075188;28;20444;-36
2023/02/25 01:36:32;;;;;;;9.45;2.50;;;;;;;3.30;100.00;100823.38;5075444;28;20029;-36
2023/02/25 01:39:01;;;;;;;8.63;2.38;;;;;;;3.35;100.00;100839.69;5074778;28;20024;-36
2023/02/25 01:41:29;;;;;;;9.63;2.33;;;;;;;3.33;100.00;100828.38;5074673;28;20021;-35
2023/02/25 01:44:17;;;;;;;7.80;1.95;;;;;;;3.38;100.00;100835.03;5074319;28;20024;-36
2023/02/25 01:46:44;;;;;;;9.18;2.15;;;;;;;3.36;100.00;100837.84;5075194;28;20024;-36
2023/02/25 01:49:21;;;;;;;11.70;2.30;;;;;;;3.36;100.00;100832.50;5074541;28;20074;-36
2023/02/25 01:51:49;;;;;;;11.38;2.05;;;;;;;3.35;100.00;100842.38;5074907;28;20017;-36
2023/02/25 01:54:16;;;;;;;10.60;2.97;;;;;;;3.28;100.00;100827.28;5074549;28;20048;-36
2023/02/25 01:56:47;;;;;;;7.05;2.30;;;;;;;3.30;100.00;100834.09;5074435;28;20024;-36
2023/02/25 01:59:13;;;;;;;9.55;2.00;;;;;;;3.23;100.00;100829.66;5074567;28;20050;-36
2023/02/25 02:01:39;;;;;;;7.63;1.88;;;;;;;3.30;100.00;100836.75;5074046;28;20040;-36
2023/02/25 02:04:07;;;;;;;5.72;1.92;;;;;;;3.27;100.00;100844.31;5074413;28;20036;-36
2023/02/25 02:06:45;;;;;;;9.18;2.20;;;;;;;3.25;100.00;100833.81;5073982;28;20043;-36
2023/02/25 02:09:18;;;;;;;8.90;2.75;;;;;;;3.23;100.00;100837.69;5074479;28;20077;-36
2023/02/25 02:11:43;;;;;;;10.85;2.40;;;;;;;3.16;100.00;100834.06;5074160;28;20021;-36
2023/02/25 02:14:14;;;;;;;11.27;2.40;;;;;;;3.19;100.00;100828.38;5073852;28;20081;-36
2023/02/25 02:17:21;;;;;;;9.73;2.22;;;;;;;3.20;100.00;100841.53;5074385;28;20394;-36
2023/02/25 02:20:13;;;;;;;12.57;2.30;;;;;;;3.13;100.00;100829.09;5074332;28;20036;-36
2023/02/25 02:22:44;;;;;;;7.65;2.25;;;;;;;3.18;100.00;100832.88;5074789;28;20099;-42
2023/02/25 02:25:12;;;;;;;5.80;1.83;;;;;;;3.16;100.00;100844.75;5074547;28;20025;-36
2023/02/25 02:27:55;;;;;;;9.05;2.20;;;;;;;3.20;100.00;100841.53;5073688;28;20020;-35
2023/02/25 02:30:33;;;;;;;8.00;2.35;;;;;;;3.18;100.00;100848.91;5073491;28;20437;-35
2023/02/25 02:33:08;;;;;;;7.88;1.70;;;;;;;3.19;100.00;100839.88;5073874;28;20039;-35
2023/02/25 02:36:05;;;;;;;7.95;2.33;;;;;;;3.20;100.00;100851.41;5073911;28;20365;-35
2023/02/25 02:38:36;;;;;;;10.02;2.33;;;;;;;3.20;100.00;100841.53;5073730;28;20078;-36
2023/02/25 02:41:27;;;;;;;9.20;2.45;;;;;;;3.20;100.00;100849.56;5074051;28;20020;-36
2023/02/25 02:44:06;;;;;;;7.60;2.10;;;;;;;3.20;100.00;100849.56;5073765;28;20024;-35
2023/02/25 02:46:47;;;;;;;10.07;3.50;;;;;;;3.21;100.00;100859.22;5073497;28;20016;-36
2023/02/25 02:49:34;;;;;;;9.70;2.30;;;;;;;3.21;100.00;100872.59;5074400;28;20077;-35
2023/02/25 02:52:04;;;;;;;7.88;2.25;;;;;;;3.20;100.00;100856.75;5073908;28;20034;-35
2023/02/25 02:54:34;;;;;;;9.13;2.33;;;;;;;3.15;100.00;100846.59;5073318;28;20023;-35
2023/02/25 02:57:01;;;;;;;8.90;2.78;;;;;;;3.18;100.00;100856.94;5074430;28;20036;-35
2023/02/25 02:59:34;;;;;;;11.80;2.70;;;;;;;3.18;100.00;100867.63;5073507;28;20021;-35
2023/02/25 03:02:13;;;;;;;15.88;2.95;;;;;;;3.16;100.00;100882.16;5073850;28;20376;-35
2023/02/25 03:04:42;;;;;;;9.75;2.58;;;;;;;3.16;100.00;100861.63;5074136;28;20379;-35
2023/02/25 03:07:11;;;;;;;8.85;2.40;;;;;;;3.15;100.00;100853.78;5073530;28;20021;-35
2023/02/25 03:09:47;;;;;;;11.32;2.40;;;;;;;3.15;100.00;100853.78;5073800;28;20099;-35
2023/02/25 03:12:13;;;;;;;;;;;;;;;3.20;100.00;100851.41;5073886;28;20040;-35
2023/02/25 03:14:38;;;;;;;8.90;2.15;;;;;;;3.17;100.00;100855.25;5074030;28;19908;-35
2023/02/25 03:17:08;;;;;;;9.93;2.53;;;;;;;3.17;100.00;100854.44;5073211;28;20024;-35
2023/02/25 03:19:37;;;;;;;12.50;2.85;;;;;;;3.17;100.00;100855.25;5074216;28;20031;-35
2023/02/25 03:22:19;;;;;;;14.13;2.65;;;;;;;3.16;100.00;100853.59;5074352;28;20033;-35
2023/02/25 03:24:52;;;;;;;14.55;3.70;;;;;;;3.12;100.00;100849.63;5073662;28;20399;-35
2023/02/25 03:27:26;;;;;;;8.98;2.53;;;;;;;3.15;100.00;100854.63;5073926;28;20087;-35
2023/02/25 03:29:53;;;;;;;9.57;2.17;;;;;;;3.16;100.00;100845.59;5073606;28;20412;-35
2023/02/25 03:32:19;;;;;;;11.38;2.70;;;;;;;3.14;100.00;100844.13;5073751;28;20064;-35
2023/02/25 03:34:48;;;;;;;14.05;3.47;;;;;;;2.94;100.00;100825.94;5073855;28;20028;-35
2023/02/25 03:37:20;;;;;;;10.27;3.13;;;;;;;3.14;100.00;100858.31;5072890;28;20031;-35
2023/02/25 03:39:50;;;;;;;9.88;2.88;;;;;;;3.09;100.00;100856.19;5074065;28;20024;-35
2023/02/25 03:42:20;;;;;;;9.23;2.40;;;;;;;3.09;100.00;100850.00;5072809;28;20028;-35
2023/02/25 03:44:55;;;;;;;9.52;2.78;;;;;;;3.10;100.00;100859.69;5073232;28;20453;-35
2023/02/25 03:47:22;;;;;;;11.70;2.50;;;;;;;3.08;100.00;100861.72;5073030;28;20355;-35
2023/02/25 03:49:59;;;;;;;10.07;2.60;;;;;;;3.06;100.00;100856.53;5076872;28;20024;-35
2023/02/25 03:52:26;;;;;;;11.18;2.80;;;;;;;3.06;100.00;100861.06;5077063;28;20498;-35
2023/02/25 03:54:54;;;;;;;9.43;2.53;;;;;;;3.07;100.00;100862.69;5076763;28;20063;-35
2023/02/25 03:57:24;;;;;;;11.07;2.45;;;;;;;3.00;100.00;100851.94;5076758;28;20032;-35
2023/02/25 03:59:55;;;;;;;14.13;2.85;;;;;;;2.96;100.00;100849.78;5077001;28;20025;-35
2023/02/25 04:02:25;;;;;;;11.00;2.83;;;;;;;3.00;100.00;100856.44;5076530;28;20094;-35
2023/02/25 04:04:51;;;;;;;13.43;2.88;;;;;;;3.01;100.00;100858.91;5076328;28;20029;-35
2023/02/25 04:07:16;;;;;;;9.97;2.50;;;;;;;3.01;100.00;100863.44;5076549;28;20016;-35
2023/02/25 04:09:41;;;;;;;9.87;3.07;;;;;;;3.03;100.00;100869.44;5077142;28;20055;-35
2023/02/25 04:12:07;;;;;;;11.47;2.70;;;;;;;3.03;100.00;100866.78;5076517;28;20157;-35
2023/02/25 04:14:32;;;;;;;10.90;2.50;;;;;;;2.93;100.00;100848.31;5076751;28;20074;-35
2023/02/25 04:16:58;;;;;;;13.03;3.80;;;;;;;3.05;100.00;100860.22;5076624;28;20345;-36
2023/02/25 04:19:23;;;;;;;8.97;2.30;;;;;;;3.07;100.00;100870.72;5076375;28;20373;-36
2023/02/25 04:21:48;;;;;;;9.93;2.57;;;;;;;3.00;100.00;100857.25;5076253;28;20463;-36
2023/02/25 04:24:14;;;;;;;11.10;2.90;;;;;;;3.08;100.00;100875.06;5076385;28;20016;-36
2023/02/25 04:26:39;;;;;;;12.23;2.85;;;;;;;3.06;100.00;100867.22;5076229;28;20036;-36
2023/02/25 04:29:04;;;;;;;13.80;3.10;;;;;;;3.07;100.00;100874.25;5077095;28;20024;-36
2023/02/25 04:31:30;;;;;;;13.43;2.93;;;;;;;3.07;100.00;100870.72;5075905;28;20089;-36
2023/02/25 04:33:56;;;;;;;14.38;3.50;;;;;;;3.05;100.00;100870.91;5076373;28;20020;-36
2023/02/25 04:36:22;;;;;;;;;;;;;;;3.10;100.00;100875.72;5076198;28;20017;-36
2023/02/25 04:38:47;;;;;;;10.40;2.40;;;;;;;3.03;100.00;100882.81;5075989;28;19915;-35
2023/02/25 04:41:12;;;;;;;13.77;2.93;;;;;;;2.91;100.00;100870.88;5075889;28;20310;-35
2023/02/25 04:43:38;;;;;;;13.57;3.40;;;;;;;2.95;100.00;100880.19;5076518;28;20459;-35
2023/02/25 04:46:03;;;;;;;13.47;3.13;;;;;;;2.92;100.00;100880.53;5076740;28;20020;-35
2023/02/25 04:48:29;;;;;;;12.17;2.47;;;;;;;2.83;100.00;100877.09;5076330;28;20099;-35
2023/02/25 04:50:54;;;;;;;13.73;2.97;;;;;;;2.80;100.00;100875.63;5075852;28;20339;-35
2023/02/25 04:53:20;;;;;;;14.15;2.88;;;;;;;2.83;100.00;100888.66;5075565;28;20109;-35
2023/02/25 04:55:45;;;;;;;11.33;2.90;;;;;;;2.79;100.00;100895.34;5076306;28;20504;-35
2023/02/25 04:58:11;;;;;;;11.63;2.67;;;;;;;2.78;100.00;100898.19;5075909;28;20522;-35
2023/02/25 05:00:37;;;;;;;;;;;;;;;2.80;100.00;100894.34;5076789;28;20105;-35
2023/02/25 05:03:02;;;;;;;9.93;2.55;;;;;;;2.74;100.00;100889.72;5076134;28;20016;-35
2023/02/25 05:05:28;;;;;;;11.73;2.70;;;;;;;2.71;100.00;100892.72;5076023;28;20499;-35
2023/02/25 05:07:53;;;;;;;14.00;3.07;;;;;;;2.67;100.00;100888.75;5075388;28;20028;-35
2023/02/25 05:10:18;;;;;;;14.70;2.97;;;;;;;2.49;100.00;100870.38;5075595;28;20112;-35
2023/02/25 05:12:44;;;;;;;12.97;3.00;;;;;;;2.61;100.00;100893.97;5074927;28;20025;-35
2023/02/25 05:15:10;;;;;;;10.07;2.57;;;;;;;2.55;100.00;100896.34;5075540;28;20029;-35
2023/02/25 05:17:36;;;;;;;14.70;2.78;;;;;;;2.48;100.00;100891.88;5074908;28;20483;-35
2023/02/25 05:20:05;;;;;;;13.85;3.42;;;;;;;2.52;100.00;100899.38;5075512;28;20020;-35
2023/02/25 05:22:31;;;;;;;9.02;2.58;;;;;;;2.49;100.00;100897.06;5074729;28;20031;-35
2023/02/25 05:24:56;;;;;;;11.13;2.60;;;;;;;2.49;100.00;100896.22;5075983;28;20111;-35
2023/02/25 05:27:21;;;;;;;11.07;2.90;;;;;;;2.48;100.00;100889.22;5075909;28;20111;-35
2023/02/25 05:29:47;;;;;;;19.57;4.07;;;;;;;2.47;100.00;100887.56;5075399;28;20033;-35
2023/02/25 05:32:12;;;;;;;10.33;2.57;;;;;;;2.33;100.00;100865.94;5074966;28;20028;-35
2023/02/25 05:34:38;;;;;;;9.83;2.40;;;;;;;2.42;100.00;100885.41;5075486;28;20064;-36
2023/02/25 05:37:03;;;;;;;9.93;2.43;;;;;;;2.37;100.00;100879.78;5074887;28;20461;-35
2023/02/25 05:39:28;;;;;;;9.13;2.70;;;;;;;2.42;100.00;100896.09;5075181;28;20050;-35
2023/02/25 05:41:54;;;;;;;8.97;2.57;;;;;;;2.41;100.00;100899.78;5074660;28;20016;-35
2023/02/25 05:44:19;;;;;;;11.10;2.67;;;;;;;2.40;100.00;100900.78;5075081;28;20168;-35
2023/02/25 05:46:45;;;;;;;11.20;2.50;;;;;;;2.41;100.00;100890.94;5074659;28;20021;-36
2023/02/25 05:49:10;;;;;;;11.98;2.40;;;;;;;2.28;100.00;100871.00;5074695;28;20086;-36
2023/02/25 05:51:35;;;;;;;13.93;4.10;;;;;;;2.38;100.00;100901.97;5074274;28;20031;-36
2023/02/25 05:54:01;;;;;;;11.37;2.67;;;;;;;2.38;100.00;100900.13;5074829;28;20467;-36
2023/02/25 05:56:27;;;;;;;11.80;2.60;;;;;;;2.39;100.00;100908.94;5074528;28;20372;-35
2023/02/25 05:58:53;;;;;;;11.38;2.80;;;;;;;2.38;100.00;100905.47;5074488;28;20074;-36
2023/02/25 06:01:26;;;;;;;14.93;4.10;;;;;;;2.38;100.00;100907.28;5074095;28;20021;-36
2023/02/25 06:03:52;;;;;;;9.73;2.92;;;;;;;2.36;100.00;100906.66;5074897;28;20035;-36
2023/02/25 06:06:21;;;;;;;10.27;3.30;;;;;;;2.38;100.00;100915.31;5074253;28;20372;-35
2023/02/25 06:08:48;;;;;;;8.13;2.58;;;;;;;2.36;100.00;100909.31;5074246;28;20364;-36
2023/02/25 06:11:18;;;;;;;8.52;2.30;;;;;;;2.36;100.00;100914.66;5074018;28;20025;-36
2023/02/25 06:13:43;;;;;;;11.48;2.70;;;;;;;2.37;100.00;100913.66;5073750;28;20376;-35
2023/02/25 06:16:09;;;;;;;10.57;2.20;;;;;;;2.38;100.00;100917.97;5074679;28;20028;-36
2023/02/25 06:18:35;;;;;;;6.83;2.07;;;;;;;2.32;100.00;100908.84;5074379;28;20078;-36
2023/02/25 06:21:09;;;;;;;10.30;2.15;;;;;;;2.34;100.00;100914.81;5074281;28;20066;-35
2023/02/25 06:23:37;;;;;;;10.60;2.17;;;;;;;2.32;100.00;100912.34;5073721;28;20048;-35
2023/02/25 06:26:04;;;;;;;10.95;2.55;;;;;;;2.30;100.00;100917.03;5074575;28;20048;-35
2023/02/25 06:28:30;;;;;;;8.38;2.00;;;;;;;2.31;100.00;100917.84;5074232;28;20103;-35
2023/02/25 06:30:55;;;;;;;9.27;2.00;;;;;;;2.28;100.00;100923.53;5074013;28;20109;-35
2023/02/25 06:33:20;;;;;;;10.20;2.83;;;;;;;2.25;100.00;100932.72;5074677;28;20067;-35
2023/02/25 06:35:53;;;;;;;11.03;2.90;;;;;;;2.25;100.00;100932.72;5074501;28;20073;-35
2023/02/25 06:38:19;;;;;;;9.45;2.00;;;;;;;2.22;100.00;100930.41;5074093;28;20115;-35
2023/02/25 06:40:45;;;;;;;14.38;2.90;;;;;;;2.22;100.00;100929.56;5074006;28;20524;-35
2023/02/25 06:43:10;;;;;;;8.57;3.30;;;;;;;2.10;100.00;100914.94;5074017;28;20099;-35
2023/02/25 06:45:35;;;;;;;16.73;3.10;;;;;;;2.09;100.00;100915.94;5074664;28;20387;-35
2023/02/25 06:48:01;;;;;;;12.60;2.60;;;;;;;2.21;100.00;100926.06;5072806;28;20063;-35
2023/02/25 06:50:26;;;;;;;5.17;1.83;;;;;;;2.22;100.00;100925.06;5074334;28;20135;-36
2023/02/25 06:52:52;;;;;;;10.00;2.38;;;;;;;2.23;100.00;100936.56;5073726;28;20389;-36
2023/02/25 06:55:18;;;;;;;10.97;2.70;;;;;;;2.24;100.00;100940.88;5074286;28;20081;-35
2023/02/25 06:57:43;;;;;;;10.15;2.67;;;;;;;2.24;100.00;100939.06;5074128;28;20360;-35
2023/02/25 07:00:09;;;;;;;8.30;2.17;;;;;;;2.27;100.00;100945.88;5073637;28;20017;-35
2023/02/25 07:02:35;;;;;;;9.48;2.22;;;;;;;2.29;100.00;100947.41;5074032;28;20482;-35
2023/02/25 07:05:01;;;;;;;10.57;2.70;;;;;;;2.30;100.00;100950.88;5073859;28;20068;-35
2023/02/25 07:07:27;;;;;;;11.68;3.40;;;;;;;2.29;100.00;100949.19;5073451;28;20460;-35
2023/02/25 07:09:53;;;;;;;9.30;2.58;;;;;;;2.35;100.00;100953.88;5073537;28;20039;-35
2023/02/25 07:12:18;;;;;;;9.27;2.43;;;;;;;2.37;100.00;100957.19;5072299;28;20032;-35
2023/02/25 07:14:44;;;;;;;9.77;2.70;;;;;;;2.38;100.00;100958.84;5073840;28;20029;-35
2023/02/25 07:17:09;;;;;;;12.70;2.33;;;;;;;2.18;100.00;100929.09;5073289;28;20021;-35
2023/02/25 07:19:35;;;;;;;8.67;2.37;;;;;;;2.40;100.00;100962.19;5073171;28;20103;-35
2023/02/25 07:22:00;;;;;;;10.83;2.50;;;;;;;2.40;100.00;100978.19;5073104;28;20286;-35
2023/02/25 07:24:26;;;;;;;10.27;2.53;;;;;;;2.44;100.00;100984.84;5076834;28;20035;-35
2023/02/25 07:26:52;;;;;;;8.93;2.30;;;;;;;2.48;100.00;100979.97;5077366;28;20035;-35
2023/02/25 07:29:18;;;;;;;11.95;2.58;;;;;;;2.50;100.00;100988.66;5077655;28;20102;-35
2023/02/25 07:31:44;;;;;;;13.57;2.77;;;;;;;2.55;100.00;100987.13;5077494;28;20040;-35
2023/02/25 07:34:10;;;;;;;11.75;3.67;;;;;;;2.60;100.00;100986.59;5077560;28;20394;-35
2023/02/25 07:36:36;;;;;;;9.75;2.72;;;;;;;2.62;100.00;100981.91;5077206;28;20025;-35
2023/02/25 07:39:07;;;;;;;13.45;2.63;;;;;;;2.63;100.00;100986.22;5077449;28;20024;-36
2023/02/25 07:41:34;;;;;;;10.13;2.92;;;;;;;2.58;100.00;100980.59;5077012;28;20020;-35
2023/02/25 07:43:59;;;;;;;10.50;2.45;;;;;;;2.64;100.00;100992.44;5077054;28;20024;-36
2023/02/25 07:46:25;;;;;;;9.00;2.60;;;;;;;2.66;100.00;100996.56;5077352;28;20035;-36
2023/02/25 07:48:50;;;;;;;11.93;2.55;;;;;;;2.64;100.00;100992.44;5076893;28;20263;-36
2023/02/25 07:51:18;;;;;;;11.27;2.33;;;;;;;2.68;100.00;100999.88;5077469;28;20029;-36
2023/02/25 07:53:45;;;;;;;15.10;4.25;;;;;;;2.59;100.00;100979.59;5076793;28;20024;-36
2023/02/25 07:56:11;;;;;;;12.50;2.90;;;;;;;2.73;100.00;101002.88;5077099;28;20404;-36
2023/02/25 07:58:37;;;;;;;15.32;2.92;;;;;;;2.73;100.00;100994.88;5076784;28;20048;-36
2023/02/25 08:01:33;;;;;;;11.02;2.55;;;;;;;2.80;100.00;101001.16;5076331;28;20115;-36
2023/02/25 08:04:04;;;;;;;11.23;2.63;;;;;;;2.79;100.00;101007.50;5072290;28;20080;-40
2023/02/25 08:06:33;;;;;;;14.50;3.03;;;;;;;2.83;100.00;101022.19;5076349;28;20052;-36
2023/02/25 08:08:59;;;;;;;11.85;2.53;;;;;;;2.84;100.00;101012.34;5076263;28;20457;-36
2023/02/25 08:11:26;;;;;;;11.82;2.35;;;;;;;3.02;100.00;101030.72;5076880;28;20076;-36
2023/02/25 08:13:52;;;;;;;12.38;3.05;;;;;;;3.15;100.00;101022.97;5076149;28;20445;-36
2023/02/25 08:16:19;;;;;;;13.60;2.80;;;;;;;3.18;100.00;101024.47;5076791;28;20050;-36
2023/02/25 08:18:45;;;;;;;14.60;3.33;;;;;;;3.28;100.00;101022.38;5076430;28;20024;-36
2023/02/25 08:21:12;;;;;;;;;;;;;;;3.35;100.00;101032.16;5077571;28;20070;-35
2023/02/25 08:23:38;;;;;;;15.50;3.70;;;;;;;3.36;100.00;101033.81;5075955;28;19909;-35
2023/02/25 08:26:03;;;;;;;14.30;3.00;;;;;;;3.40;100.00;101036.16;5074990;28;20441;-35
2023/02/25 08:28:30;;;;;;;9.88;2.58;;;;;;;3.41;100.00;101030.59;5075751;28;20031;-35
2023/02/25 08:30:56;;;;;;;11.35;3.00;;;;;;;3.42;100.00;101021.59;5076292;28;20062;-35
2023/02/25 08:33:22;;;;;;;11.05;2.88;;;;;;;3.56;100.00;101033.31;5075530;28;20443;-35
2023/02/25 08:35:48;;;;;;;16.42;3.55;;;;;;;3.56;100.00;101025.31;5075969;28;20066;-35
2023/02/25 08:38:13;;;;;;;12.40;3.33;;;;;;;3.63;100.00;101014.75;5075872;28;20052;-35
2023/02/25 08:40:39;;;;;;;16.10;4.03;;;;;;;3.73;100.00;101026.00;5076082;28;20428;-35
2023/02/25 08:43:06;;;;;;;14.30;3.50;;;;;;;3.78;100.00;101021.78;5076019;28;20017;-35
2023/02/25 08:45:32;;;;;;;15.68;2.90;;;;;;;3.83;100.00;101029.25;5075678;28;20090;-35
2023/02/25 08:47:57;;;;;;;10.93;2.75;;;;;;;3.91;100.00;101031.03;5075744;28;20024;-35
2023/02/25 08:50:23;;;;;;;11.77;2.80;;;;;;;3.95;100.00;101037.66;5076206;28;20024;-35
2023/02/25 08:52:50;;;;;;;15.55;3.00;;;;;;;3.97;100.00;101041.00;5075741;28;20031;-35
2023/02/25 08:55:16;;;;;;;9.95;2.45;;;;;;;4.01;100.00;101042.28;5075754;28;20021;-36
2023/02/25 08:57:42;;;;;;;15.13;3.40;;;;;;;4.02;100.00;101035.91;5075963;28;20543;-35
2023/02/25 09:00:10;;;;;;;12.37;2.70;;;;;;;4.07;100.00;101041.56;5075898;28;20025;-35
2023/02/25 09:02:37;;;;;;;13.18;3.00;;;;;;;4.10;100.00;101039.34;5075820;28;20344;-35
2023/02/25 09:05:03;;;;;;;13.00;3.00;;;;;;;4.22;100.00;101045.06;5075321;28;20542;-35
2023/02/25 09:07:29;;;;;;;13.50;3.25;;;;;;;4.18;100.00;101033.06;5075534;28;20017;-35
2023/02/25 09:09:54;;;;;;;10.48;2.22;;;;;;;4.28;100.00;101055.03;5076038;28;20036;-35
2023/02/25 09:12:20;;;;;;;13.50;3.93;;;;;;;4.24;100.00;101037.66;5075465;28;20020;-34
2023/02/25 09:14:45;;;;;;;10.18;2.95;;;;;;;4.32;100.00;101055.50;5076231;28;20016;-35
2023/02/25 09:17:10;;;;;;;18.23;4.70;;;;;;;4.34;100.00;101048.94;5075290;28;20498;-35
2023/02/25 09:19:39;;;;;;;10.33;3.10;;;;;;;4.43;100.00;101059.53;5075602;28;20039;-35
2023/02/25 09:22:06;;;;;;;13.30;3.10;;;;;;;4.68;100.00;101055.53;5074908;28;20027;-35
2023/02/25 09:24:32;;;;;;;14.98;3.40;;;;;;;4.88;100.00;101061.13;5075734;28;20016;-35
2023/02/25 09:26:59;;;;;;;16.88;4.15;;;;;;;4.90;100.00;101043.88;5074792;28;20449;-35
2023/02/25 09:29:25;;;;;;;8.75;2.58;;;;;;;5.06;100.00;101053.53;5075700;28;20013;-35
2023/02/25 09:31:52;;;;;;;8.90;2.85;;;;;;;5.24;100.00;101076.41;5074975;28;20440;-35
2023/02/25 09:34:19;;;;;;;15.18;2.95;;;;;;;5.31;100.00;101071.94;5075512;28;20035;-36
2023/02/25 09:36:45;;;;;;;7.47;2.42;;;;;;;5.32;100.00;101071.75;5073622;28;20028;-36
2023/02/25 09:39:11;;;;;;;10.38;2.85;;;;;;;5.38;100.00;101078.19;5074895;28;20029;-36
2023/02/25 09:41:50;;;;;;;;;;;;;;;5.54;100.00;101087.84;5075167;28;20025;-36
2023/02/25 09:44:20;;;;;;;8.50;2.50;;;;;;;5.61;100.00;101078.84;5075609;28;19908;-36
2023/02/25 09:46:55;;;;;;;11.35;2.20;;;;;;;5.59;100.00;101080.88;5073864;28;20027;-36
2023/02/25 09:49:30;;;;;;;8.05;2.30;;;;;;;5.71;100.00;101093.75;5073981;28;20024;-36
2023/02/25 09:52:17;;;;;;;7.63;2.35;;;;;;;5.81;100.00;101105.03;5074864;28;20028;-36
2023/02/25 09:54:47;;;;;;;12.88;3.33;;;;;;;5.83;100.00;101097.59;5074860;28;20028;-35
2023/02/25 09:57:20;;;;;;;7.75;2.10;;;;;;;5.88;100.00;101100.53;5075355;28;20028;-35
2023/02/25 09:59:47;;;;;;;8.07;2.58;;;;;;;5.90;100.00;101099.31;5074221;28;20060;-35
2023/02/25 10:02:36;;;;;;;9.88;2.38;;;;;;;5.93;100.00;101103.50;5074738;28;20091;-35
2023/02/25 10:05:20;;;;;;;8.43;2.33;;;;;;;5.79;100.00;101107.88;5074660;28;20070;-35
2023/02/25 10:08:07;;;;;;;9.35;2.00;;;;;;;5.54;100.00;101101.25;5074885;28;20036;-35
2023/02/25 10:11:00;;;;;;;12.00;2.83;;;;;;;5.36;100.00;101110.56;5074309;28;20077;-35
2023/02/25 10:13:34;;;;;;;11.38;2.70;;;;;;;5.34;100.00;101123.34;5063733;28;20032;-35
2023/02/25 10:16:35;;;;;;;12.07;2.58;;;;;;;5.24;100.00;101133.53;5073225;28;20016;-35
2023/02/25 10:19:18;;;;;;;9.27;2.63;;;;;;;5.03;100.00;101128.13;5074381;28;20365;-35
2023/02/25 10:21:59;;;;;;;9.63;2.33;;;;;;;5.15;100.00;101135.50;5074280;28;20029;-35
2023/02/25 10:24:49;;;;;;;10.07;2.50;;;;;;;5.20;100.00;101134.94;5074061;28;20103;-35
2023/02/25 10:27:28;;;;;;;9.00;2.72;;;;;;;5.18;100.00;101130.78;5074837;28;20066;-35
2023/02/25 10:30:10;;;;;;;6.35;2.00;;;;;;;5.31;100.00;101129.06;5074517;28;20029;-36
2023/02/25 10:32:38;;;;;;;9.30;2.25;;;;;;;5.38;100.00;101129.97;5074002;28;20531;-36
2023/02/25 10:35:15;;;;;;;7.68;2.20;;;;;;;5.66;100.00;101124.72;5073926;28;20375;-36
2023/02/25 10:37:41;;;;;;;6.47;1.88;;;;;;;5.82;100.00;101112.88;5073821;28;20062;-36
2023/02/25 10:40:13;;;;;;;8.65;2.20;;;;;;;6.09;100.00;101142.63;5074204;28;20025;-36
2023/02/25 10:42:38;;;;;;;7.90;2.10;;;;;;;6.17;100.00;101134.44;5073458;28;20028;-36
2023/02/25 10:45:10;;;;;;;9.60;2.60;;;;;;;6.29;100.00;101118.63;5074144;28;20028;-36
2023/02/25 10:47:41;;;;;;;6.18;1.65;;;;;;;6.64;100.00;101149.03;5073652;28;20476;-36
2023/02/25 10:50:23;;;;;;;7.13;1.85;;;;;;;6.97;100.00;101147.34;5074286;28;20479;-36
2023/02/25 10:52:59;;;;;;;15.35;3.13;;;;;;;7.12;100.00;101152.56;5073634;28;20028;-36
2023/02/25 10:55:24;;;;;;;7.95;2.33;;;;;;;6.93;100.00;101121.91;5073687;28;20111;-36
2023/02/25 10:57:50;;;;;;;10.90;2.27;;;;;;;6.84;100.00;101133.84;5071182;28;20210;-36
2023/02/25 11:00:29;;;;;;;5.43;2.05;;;;;;;6.85;99.08;101140.06;5073592;28;20061;-36
2023/02/25 11:03:00;;;;;;;7.60;1.90;;;;;;;6.67;96.17;101154.84;5073706;28;20070;-36
2023/02/25 11:05:42;;;;;;;5.35;1.77;;;;;;;6.68;96.76;101150.28;5073061;28;20020;-36
2023/02/25 11:08:33;;;;;;;75.47;7.20;;;;;;;6.79;98.57;101146.25;5073259;28;20036;-36
2023/02/25 11:11:15;;;;;;;20.30;3.65;;;;;;;6.85;96.11;101151.63;5072564;28;20032;-36
2023/02/25 11:13:41;;;;;;;7.22;1.73;;;;;;;6.90;90.73;101153.72;5073424;28;20016;-35
2023/02/25 11:16:12;;;;;;;7.28;1.60;;;;;;;6.82;82.97;101164.63;5072234;28;20040;-34
2023/02/25 11:18:40;;;;;;;5.68;1.30;;;;;;;6.83;85.11;101163.59;5073391;28;20349;-35
2023/02/25 11:21:09;;;;;;;6.68;1.52;;;;;;;6.86;82.64;101161.34;5069732;28;20027;-35
2023/02/25 11:23:38;;;;;;;12.82;1.83;;;;;;;6.88;82.86;101139.63;5073554;28;20024;-35
2023/02/25 11:26:06;;;;;;;6.47;1.90;;;;;;;6.68;80.57;101140.34;5073102;28;20029;-38
2023/02/25 11:28:42;;;;;;;4.90;1.00;;;;;;;6.81;82.35;101161.13;5073652;28;20020;-36
2023/02/25 11:31:17;;;;;;;4.35;0.95;;;;;;;6.75;82.76;101169.97;5073316;28;20032;-36